EICK

Cork Airport

Cork, Ireland
METAR EICK 180830Z 19003KT 1200 R17/1300U R35/P2000 MIFG SCT002 06/06 Q1028 TEMPO 0800
Observed Flight Rules
Dec-18 @ 08:30 UTC (10 minutes ago) Instrument Flight Rules
Wind Visibility Clouds Conditions
190° at 3 knots 1,207 meters
  • Scattered at 200' AGL
  • Shallow
  • Fog
Temperatures Readings
Current 6°C / 43°F
Dewpoint 6°C / 43°F
Humidity 100%
Altimeter 30.35" Hg
Pressure 1028 hPa
Elevation 162
METAR EICK 180830Z 19003KT 1200 R17/1300U R35/P2000 MIFG SCT002 06/06 Q1028 TEMPO 0800
Observed Flight Rules
Dec-18 @ 08:30 UTC
(10 minutes ago)
LIFR
Wind Visibility
190° at 3 knots 1,207 meters
Clouds
  • Scattered at 200' AGL
Conditions
  • Shallow
  • Fog
Temperature Dewpoint
6°C / 43°F 6°C / 43°F
Humidity Altimeter Pressure
100% 30.35" Hg 1028 hPa